createdAt,value
2019-05-11T00:01:58.213Z,21.97
2019-05-11T00:04:26.697Z,21.52
2019-05-11T00:06:55.157Z,22.20
2019-05-11T00:09:23.613Z,21.50
2019-05-11T00:11:52.109Z,22.73
2019-05-11T00:14:20.571Z,23.18
2019-05-11T00:16:49.026Z,22.73
2019-05-11T00:19:17.512Z,22.32
2019-05-11T00:21:46.116Z,23.65
2019-05-11T00:24:14.582Z,22.85
2019-05-11T00:26:43.083Z,24.43
2019-05-11T00:29:11.547Z,24.50
2019-05-11T00:31:40.126Z,23.80
2019-05-11T00:34:08.860Z,24.20
2019-05-11T00:36:37.325Z,25.20
2019-05-11T00:39:07.559Z,24.57
2019-05-11T00:41:36.143Z,24.02
2019-05-11T00:44:04.741Z,24.63
2019-05-11T00:46:33.191Z,24.25
2019-05-11T00:49:01.777Z,24.75
2019-05-11T00:51:30.380Z,24.57
2019-05-11T00:53:58.835Z,25.40
2019-05-11T00:56:27.344Z,25.08
2019-05-11T00:58:55.793Z,24.67
2019-05-11T01:01:24.431Z,25.45
2019-05-11T01:03:53.634Z,25.50
2019-05-11T01:06:22.113Z,25.35
2019-05-11T01:08:50.643Z,25.55
2019-05-11T01:11:19.156Z,25.23
2019-05-11T01:13:47.621Z,25.62
2019-05-11T01:16:16.078Z,25.52
2019-05-11T01:18:44.586Z,25.77
2019-05-11T01:21:13.067Z,25.70
2019-05-11T01:23:41.592Z,26.62
2019-05-11T01:26:10.125Z,25.40
2019-05-11T01:28:38.577Z,26.95
2019-05-11T01:31:07.040Z,26.52
2019-05-11T01:33:35.551Z,26.45
2019-05-11T01:36:04.004Z,27.00
2019-05-11T01:38:32.458Z,25.62
2019-05-11T01:41:01.091Z,25.32
2019-05-11T01:43:29.541Z,26.25
2019-05-11T01:45:57.996Z,24.15
2019-05-11T01:48:26.526Z,24.40
2019-05-11T01:50:55.046Z,24.60
2019-05-11T01:53:23.504Z,24.37
2019-05-11T01:55:51.996Z,25.17
2019-05-11T01:58:20.457Z,23.95
2019-05-11T02:00:48.908Z,23.55
2019-05-11T02:03:17.433Z,24.82
2019-05-11T02:05:45.945Z,24.18
2019-05-11T02:08:14.404Z,24.47
2019-05-11T02:10:42.920Z,22.62
2019-05-11T02:13:11.452Z,23.12
2019-05-11T02:15:39.908Z,23.45
2019-05-11T02:18:08.426Z,22.73
2019-05-11T02:20:37.018Z,21.93
2019-05-11T02:23:05.468Z,20.97
2019-05-11T02:25:33.967Z,20.77
2019-05-11T02:28:02.424Z,20.90
2019-05-11T02:30:30.912Z,22.13
2019-05-11T02:32:59.480Z,21.35
2019-05-11T02:35:27.945Z,21.02
2019-05-11T02:37:56.403Z,19.77
2019-05-11T02:40:25.434Z,20.50
2019-05-11T02:42:53.957Z,20.45
2019-05-11T02:45:37.631Z,21.50
2019-05-11T02:48:06.171Z,20.62
2019-05-11T02:50:36.835Z,20.57
2019-05-11T02:53:05.669Z,20.70
2019-05-11T02:55:35.768Z,20.55
2019-05-11T02:58:05.970Z,19.82
2019-05-11T03:00:37.593Z,21.27
2019-05-11T03:03:06.296Z,20.27
2019-05-11T03:05:34.818Z,19.07
2019-05-11T03:08:03.306Z,21.35
2019-05-11T03:10:31.919Z,20.02
2019-05-11T03:13:00.521Z,19.40
2019-05-11T03:15:29.221Z,20.55
2019-05-11T03:17:57.678Z,20.60
2019-05-11T03:20:26.129Z,20.77
2019-05-11T03:22:54.624Z,21.40
2019-05-11T03:25:23.074Z,20.55
2019-05-11T03:27:51.538Z,20.32
2019-05-11T03:30:20.595Z,19.50
2019-05-11T03:32:49.055Z,20.32
2019-05-11T03:35:17.754Z,19.80
2019-05-11T03:37:46.245Z,20.55
2019-05-11T03:40:14.948Z,22.58
2019-05-11T03:42:43.419Z,22.58
2019-05-11T03:45:11.974Z,22.30
2019-05-11T03:47:40.420Z,22.77
2019-05-11T03:50:09.315Z,22.80
2019-05-11T03:52:37.800Z,22.48
2019-05-11T03:55:06.697Z,22.00
2019-05-11T03:57:35.156Z,22.30
2019-05-11T04:00:05.675Z,21.65
2019-05-11T04:02:34.128Z,21.77
2019-05-11T04:05:02.759Z,22.62
2019-05-11T04:07:31.278Z,22.25
2019-05-11T04:09:59.818Z,23.65
2019-05-11T04:12:34.582Z,23.47
2019-05-11T04:14:58.558Z,23.10
2019-05-11T04:17:27.029Z,23.75
2019-05-11T04:19:55.615Z,24.07
2019-05-11T04:22:24.122Z,24.85
2019-05-11T04:24:52.592Z,24.32
2019-05-11T04:27:21.123Z,24.95
2019-05-11T04:30:09.071Z,25.45
2019-05-11T04:32:37.583Z,26.33
2019-05-11T04:35:06.342Z,26.87
2019-05-11T04:37:34.928Z,26.45
2019-05-11T04:40:03.824Z,26.55
2019-05-11T04:42:32.282Z,27.77
2019-05-11T04:45:00.782Z,29.75
2019-05-11T04:47:29.241Z,30.10
2019-05-11T04:49:57.700Z,29.23
2019-05-11T04:52:26.191Z,31.45
2019-05-11T04:54:54.658Z,31.45
2019-05-11T04:57:23.131Z,32.55
2019-05-11T04:59:51.626Z,33.23
2019-05-11T05:02:20.163Z,33.63
2019-05-11T05:04:48.688Z,33.48
2019-05-11T05:07:17.186Z,34.75
2019-05-11T05:09:45.717Z,35.13
2019-05-11T05:12:15.606Z,35.98
2019-05-11T05:14:44.414Z,35.48
2019-05-11T05:17:12.892Z,37.63
2019-05-11T05:19:41.432Z,37.17
2019-05-11T05:22:09.938Z,38.65
2019-05-11T05:24:38.399Z,38.90
2019-05-11T05:27:06.928Z,41.08
2019-05-11T05:29:35.435Z,40.55
2019-05-11T05:32:03.899Z,40.52
2019-05-11T05:34:32.352Z,42.17
2019-05-11T05:37:00.875Z,41.45
2019-05-11T05:39:29.391Z,43.40
2019-05-11T05:41:57.845Z,43.63
2019-05-11T05:44:27.757Z,43.02
2019-05-11T05:46:56.741Z,43.13
2019-05-11T05:49:25.262Z,44.18
2019-05-11T05:51:53.764Z,43.92
2019-05-11T05:54:22.292Z,43.15
2019-05-11T05:56:50.762Z,42.98
2019-05-11T05:59:19.366Z,44.35
2019-05-11T06:01:47.889Z,44.03
2019-05-11T06:04:16.411Z,43.25
2019-05-11T06:06:44.925Z,45.17
2019-05-11T06:09:13.393Z,45.23
2019-05-11T06:11:41.864Z,46.85
2019-05-11T06:14:10.501Z,45.52
2019-05-11T06:16:38.965Z,45.17
2019-05-11T06:19:07.419Z,46.10
2019-05-11T06:21:35.924Z,45.15
2019-05-11T06:24:07.491Z,46.30
2019-05-11T06:26:34.848Z,45.17
2019-05-11T06:29:03.362Z,44.73
2019-05-11T06:31:33.586Z,43.73
2019-05-11T06:34:02.121Z,46.53
2019-05-11T06:36:30.602Z,44.03
2019-05-11T06:38:59.056Z,44.15
2019-05-11T06:41:27.541Z,44.67
2019-05-11T06:44:01.704Z,45.10
2019-05-11T06:46:26.237Z,44.13
2019-05-11T06:48:54.757Z,42.40
2019-05-11T06:51:23.450Z,42.50
2019-05-11T06:53:51.914Z,40.65
2019-05-11T06:56:20.379Z,41.95
2019-05-11T06:58:48.871Z,40.73
2019-05-11T07:01:17.345Z,41.28
2019-05-11T07:03:46.748Z,41.65
2019-05-11T07:06:15.233Z,43.60
2019-05-11T07:08:43.699Z,41.00
2019-05-11T07:11:12.243Z,39.85
2019-05-11T07:13:40.792Z,40.92
2019-05-11T07:16:09.320Z,39.85
2019-05-11T07:18:39.435Z,37.53
2019-05-11T07:21:07.924Z,38.20
2019-05-11T07:23:36.387Z,34.95
2019-05-11T07:26:04.919Z,36.48
2019-05-11T07:28:33.412Z,35.35
2019-05-11T07:31:02.013Z,33.13
2019-05-11T07:33:30.489Z,33.45
2019-05-11T07:35:58.979Z,32.88
2019-05-11T07:38:27.945Z,31.02
2019-05-11T07:40:58.293Z,31.50
2019-05-11T07:43:28.764Z,30.30
2019-05-11T07:45:58.420Z,28.40
2019-05-11T07:48:27.900Z,28.85
2019-05-11T07:50:58.419Z,29.00
2019-05-11T07:53:27.937Z,27.30
2019-05-11T07:55:57.717Z,26.73
2019-05-11T07:58:28.481Z,27.13
2019-05-11T08:00:58.166Z,26.75
2019-05-11T08:03:28.386Z,25.60
2019-05-11T08:05:58.259Z,25.95
2019-05-11T08:08:28.335Z,25.57
2019-05-11T08:10:58.701Z,25.95
2019-05-11T08:13:28.232Z,25.52
2019-05-11T08:15:57.848Z,24.12
2019-05-11T08:18:28.172Z,25.77
2019-05-11T08:20:58.300Z,24.25
2019-05-11T08:23:28.562Z,24.30
2019-05-11T08:25:58.099Z,23.52
2019-05-11T08:28:28.767Z,23.18
2019-05-11T08:30:57.901Z,22.90
2019-05-11T08:33:28.387Z,22.70
2019-05-11T08:35:58.247Z,22.20
2019-05-11T08:38:28.578Z,22.73
2019-05-11T08:40:59.050Z,21.68
2019-05-11T08:43:28.537Z,20.57
2019-05-11T08:45:57.871Z,20.02
2019-05-11T08:48:28.238Z,19.52
2019-05-11T08:50:58.209Z,19.60
2019-05-11T08:53:28.425Z,19.05
2019-05-11T08:55:58.829Z,19.52
2019-05-11T08:58:27.848Z,17.92
2019-05-11T09:00:58.302Z,16.67
2019-05-11T09:03:28.428Z,17.32
2019-05-11T09:05:57.953Z,16.90
2019-05-11T09:08:28.261Z,16.95
2019-05-11T09:10:58.223Z,16.87
2019-05-11T09:13:27.925Z,15.38
2019-05-11T09:15:58.653Z,14.20
2019-05-11T09:18:28.014Z,14.68
2019-05-11T09:20:57.724Z,13.80
2019-05-11T09:23:34.456Z,14.25
2019-05-11T09:25:58.383Z,12.88
2019-05-11T09:28:29.301Z,11.90
2019-05-11T09:30:57.796Z,12.35
2019-05-11T09:33:28.348Z,13.22
2019-05-11T09:35:58.343Z,13.62
2019-05-11T09:38:27.752Z,13.60
2019-05-11T09:40:58.511Z,12.58
2019-05-11T09:43:28.407Z,11.80
2019-05-11T09:45:58.275Z,11.80
2019-05-11T09:48:28.427Z,10.32
2019-05-11T09:50:58.746Z,12.70
2019-05-11T09:53:28.306Z,11.68
2019-05-11T09:55:58.657Z,11.90
2019-05-11T09:58:28.027Z,11.68
2019-05-11T10:00:58.618Z,11.73
2019-05-11T10:03:28.123Z,11.30
2019-05-11T10:05:58.025Z,10.13
2019-05-11T10:08:28.692Z,9.85
2019-05-11T10:10:58.074Z,9.75
2019-05-11T10:13:27.878Z,9.75
2019-05-11T10:16:04.386Z,9.63
2019-05-11T10:18:28.202Z,8.78
2019-05-11T10:20:58.653Z,8.68
2019-05-11T10:23:27.960Z,8.45
2019-05-11T10:25:58.548Z,9.40
2019-05-11T10:28:28.477Z,8.50
2019-05-11T10:30:57.888Z,8.43
2019-05-11T10:33:28.161Z,9.45
2019-05-11T10:35:58.766Z,9.70
2019-05-11T10:38:28.536Z,9.20
2019-05-11T10:40:58.174Z,8.28
2019-05-11T10:43:28.889Z,8.88
2019-05-11T10:45:58.783Z,8.95
2019-05-11T10:48:28.204Z,9.30
2019-05-11T10:50:57.500Z,8.33
2019-05-11T10:53:27.844Z,8.70
2019-05-11T10:55:58.192Z,9.13
2019-05-11T10:58:28.542Z,8.25
2019-05-11T11:00:58.199Z,7.97
2019-05-11T11:03:28.415Z,7.40
2019-05-11T11:05:58.062Z,6.78
2019-05-11T11:08:27.820Z,7.28
2019-05-11T11:10:58.552Z,6.67
2019-05-11T11:13:28.074Z,7.03
2019-05-11T11:15:58.187Z,6.65
2019-05-11T11:18:28.774Z,7.70
2019-05-11T11:20:58.068Z,7.30
2019-05-11T11:23:28.473Z,6.12
2019-05-11T11:25:58.518Z,6.50
2019-05-11T11:28:28.031Z,6.70
2019-05-11T11:30:58.490Z,7.17
2019-05-11T11:33:27.727Z,6.42
2019-05-11T11:35:58.003Z,7.55
2019-05-11T11:38:28.681Z,6.62
2019-05-11T11:40:58.692Z,5.53
2019-05-11T11:43:28.751Z,5.60
2019-05-11T11:45:58.027Z,5.87
2019-05-11T11:48:28.013Z,5.10
2019-05-11T11:50:58.473Z,5.95
2019-05-11T11:53:27.962Z,6.08
2019-05-11T11:55:58.625Z,5.47
2019-05-11T11:58:27.676Z,4.58
2019-05-11T12:00:58.519Z,4.70
2019-05-11T12:03:27.710Z,4.55
2019-05-11T12:05:58.114Z,4.97
2019-05-11T12:08:28.295Z,4.85
2019-05-11T12:10:58.742Z,5.00
2019-05-11T12:13:29.520Z,5.08
2019-05-11T12:15:58.510Z,4.28
2019-05-11T12:18:28.692Z,3.22
2019-05-11T12:20:58.548Z,3.02
2019-05-11T12:23:28.466Z,2.90
2019-05-11T12:25:58.046Z,3.62
2019-05-11T12:28:27.620Z,3.70
2019-05-11T12:30:58.437Z,3.67
2019-05-11T12:33:27.965Z,3.60
2019-05-11T12:35:58.536Z,3.70
2019-05-11T12:38:27.651Z,3.42
2019-05-11T12:40:57.941Z,4.22
2019-05-11T12:43:27.696Z,4.10
2019-05-11T12:45:58.578Z,4.20
2019-05-11T12:48:28.445Z,4.33
2019-05-11T12:50:58.650Z,4.30
2019-05-11T12:53:27.936Z,4.17
2019-05-11T12:55:58.725Z,3.75
2019-05-11T12:58:28.065Z,3.98
2019-05-11T13:00:58.533Z,4.05
2019-05-11T13:03:27.872Z,4.20
2019-05-11T13:05:58.418Z,4.30
2019-05-11T13:08:27.720Z,4.53
2019-05-11T13:10:58.269Z,4.08
2019-05-11T13:13:28.595Z,4.42
2019-05-11T13:15:58.479Z,5.10
2019-05-11T13:18:27.930Z,4.45
2019-05-11T13:20:58.625Z,4.75
2019-05-11T13:23:27.820Z,3.67
2019-05-11T13:25:58.373Z,3.47
2019-05-11T13:28:28.441Z,4.30
2019-05-11T13:30:58.032Z,4.00
2019-05-11T13:33:27.984Z,4.28
2019-05-11T13:35:57.922Z,4.50
2019-05-11T13:38:28.333Z,3.95
2019-05-11T13:40:58.448Z,3.92
2019-05-11T13:43:28.083Z,3.98
2019-05-11T13:45:58.417Z,4.40
2019-05-11T13:48:28.153Z,3.77
2019-05-11T13:50:58.205Z,3.70
2019-05-11T13:53:27.643Z,3.70
2019-05-11T13:55:58.661Z,3.30
2019-05-11T13:58:27.750Z,3.80
2019-05-11T14:00:58.320Z,3.35
2019-05-11T14:03:27.694Z,3.72
2019-05-11T14:05:58.182Z,3.65
2019-05-11T14:08:27.803Z,3.15
2019-05-11T14:10:58.020Z,4.12
2019-05-11T14:13:28.640Z,3.42
2019-05-11T14:15:58.657Z,3.72
2019-05-11T14:18:28.164Z,4.30
2019-05-11T14:20:58.604Z,3.92
2019-05-11T14:23:30.818Z,4.05
2019-05-11T14:25:57.665Z,4.12
2019-05-11T14:28:28.540Z,3.90
2019-05-11T14:30:57.844Z,4.05
2019-05-11T14:33:28.292Z,3.70
2019-05-11T14:35:57.861Z,3.98
2019-05-11T14:38:28.281Z,4.10
2019-05-11T14:40:58.569Z,4.55
2019-05-11T14:43:27.715Z,4.50
2019-05-11T14:45:57.841Z,4.10
2019-05-11T14:48:30.145Z,4.20
2019-05-11T14:50:59.301Z,4.50
2019-05-11T14:53:28.340Z,4.70
2019-05-11T14:55:58.535Z,4.25
2019-05-11T14:58:28.044Z,4.70
2019-05-11T15:00:58.275Z,5.12
2019-05-11T15:03:48.699Z,4.90
2019-05-11T15:06:18.806Z,5.05
2019-05-11T15:08:47.895Z,4.97
2019-05-11T15:11:18.879Z,4.70
2019-05-11T15:13:48.834Z,4.95
2019-05-11T15:16:18.719Z,4.78
2019-05-11T15:18:48.466Z,4.92
2019-05-11T15:21:18.924Z,4.62
2019-05-11T15:23:47.917Z,5.10
2019-05-11T15:26:18.496Z,4.28
2019-05-11T15:28:48.577Z,4.62
2019-05-11T15:31:21.865Z,4.30
2019-05-11T15:33:48.833Z,4.70
2019-05-11T15:36:19.219Z,4.35
2019-05-11T15:38:48.156Z,4.83
2019-05-11T15:41:17.650Z,4.95
2019-05-11T15:43:47.999Z,4.15
2019-05-11T15:46:19.499Z,4.80
2019-05-11T15:48:56.781Z,4.22
2019-05-11T15:51:18.791Z,3.80
2019-05-11T15:53:47.666Z,4.20
2019-05-11T15:56:19.076Z,3.98
2019-05-11T15:58:48.617Z,4.05
2019-05-11T16:01:18.629Z,3.80
2019-05-11T16:03:49.703Z,3.83
2019-05-11T16:06:18.666Z,3.70
2019-05-11T16:08:47.477Z,3.87
2019-05-11T16:11:18.189Z,3.62
2019-05-11T16:13:48.434Z,4.28
2019-05-11T16:16:16.504Z,3.70
2019-05-11T16:18:44.995Z,4.00
2019-05-11T16:21:13.456Z,4.37
2019-05-11T16:23:41.921Z,4.70
2019-05-11T16:26:10.417Z,4.30
2019-05-11T16:28:38.871Z,4.20
2019-05-11T16:31:09.258Z,4.20
2019-05-11T16:33:37.580Z,5.03
2019-05-11T16:36:08.768Z,5.42
2019-05-11T16:38:38.010Z,4.53
2019-05-11T16:41:08.981Z,4.87
2019-05-11T16:43:38.497Z,4.42
2019-05-11T16:46:08.648Z,4.33
2019-05-11T16:48:38.263Z,4.83
2019-05-11T16:51:08.631Z,4.80
2019-05-11T16:53:39.024Z,4.40
2019-05-11T16:56:08.417Z,4.47
2019-05-11T16:58:40.664Z,4.92
2019-05-11T17:01:08.600Z,4.00
2019-05-11T17:03:38.400Z,4.12
2019-05-11T17:06:08.369Z,4.12
2019-05-11T17:08:38.313Z,4.60
2019-05-11T17:11:08.165Z,4.37
2019-05-11T17:13:37.928Z,3.58
2019-05-11T17:16:08.721Z,4.45
2019-05-11T17:18:37.014Z,4.33
2019-05-11T17:21:07.618Z,3.80
2019-05-11T17:23:38.095Z,4.17
2019-05-11T17:26:08.418Z,3.80
2019-05-11T17:28:37.899Z,3.90
2019-05-11T17:31:08.050Z,3.52
2019-05-11T17:33:38.518Z,3.77
2019-05-11T17:36:08.456Z,3.65
2019-05-11T17:38:39.010Z,3.92
2019-05-11T17:41:08.477Z,3.75
2019-05-11T17:43:38.692Z,3.52
2019-05-11T17:46:08.187Z,3.75
2019-05-11T17:48:38.852Z,3.40
2019-05-11T17:51:20.568Z,3.92
2019-05-11T17:53:37.835Z,3.77
2019-05-11T17:56:07.122Z,3.72
2019-05-11T17:58:37.670Z,3.77
2019-05-11T18:01:06.016Z,3.45
2019-05-11T18:03:34.576Z,4.00
2019-05-11T18:06:03.032Z,3.90
2019-05-11T18:08:31.476Z,3.90
2019-05-11T18:10:59.987Z,3.72
2019-05-11T18:13:28.646Z,4.20
2019-05-11T18:15:57.778Z,3.77
2019-05-11T18:18:28.881Z,3.87
2019-05-11T18:20:57.920Z,3.42
2019-05-11T18:23:28.207Z,3.40
2019-05-11T18:25:57.197Z,3.60
2019-05-11T18:28:25.829Z,3.40
2019-05-11T18:30:54.277Z,3.50
2019-05-11T18:33:22.762Z,3.15
2019-05-11T18:35:51.212Z,3.12
2019-05-11T18:38:19.665Z,3.20
2019-05-11T18:40:48.595Z,3.25
2019-05-11T18:43:18.827Z,3.52
2019-05-11T18:45:48.840Z,3.10
2019-05-11T18:48:18.581Z,3.17
2019-05-11T18:50:49.147Z,4.00
2019-05-11T18:53:18.625Z,3.60
2019-05-11T18:55:48.662Z,3.12
2019-05-11T18:58:18.559Z,3.12
2019-05-11T19:00:48.762Z,3.10
2019-05-11T19:03:19.216Z,3.47
2019-05-11T19:05:48.178Z,3.05
2019-05-11T19:08:18.785Z,3.42
2019-05-11T19:10:48.897Z,2.90
2019-05-11T19:13:17.345Z,3.20
2019-05-11T19:15:48.445Z,3.47
2019-05-11T19:18:16.348Z,3.50
2019-05-11T19:20:47.068Z,3.27
2019-05-11T19:23:15.121Z,3.60
2019-05-11T19:25:43.608Z,3.05
2019-05-11T19:28:12.091Z,3.40
2019-05-11T19:30:40.623Z,3.00
2019-05-11T19:33:11.129Z,3.10
2019-05-11T19:35:39.386Z,3.37
2019-05-11T19:38:08.710Z,3.00
2019-05-11T19:40:38.272Z,2.98
2019-05-11T19:43:08.107Z,3.22
2019-05-11T19:45:38.452Z,3.42
2019-05-11T19:48:08.399Z,3.15
2019-05-11T19:50:38.214Z,3.55
2019-05-11T19:53:08.433Z,3.47
2019-05-11T19:55:37.113Z,3.12
2019-05-11T19:58:05.566Z,3.10
2019-05-11T20:00:34.032Z,3.00
2019-05-11T20:03:02.643Z,3.10
2019-05-11T20:05:31.381Z,3.10
2019-05-11T20:07:59.834Z,3.45
2019-05-11T20:10:28.320Z,3.33
2019-05-11T20:12:58.812Z,3.30
2019-05-11T20:15:26.957Z,3.12
2019-05-11T20:17:55.513Z,3.30
2019-05-11T20:20:23.967Z,3.30
2019-05-11T20:22:52.430Z,3.20
2019-05-11T20:25:20.924Z,3.05
2019-05-11T20:27:49.395Z,3.37
2019-05-11T20:30:19.114Z,3.60
2019-05-11T20:32:48.871Z,3.60
2019-05-11T20:35:17.843Z,3.27
2019-05-11T20:37:46.407Z,3.52
2019-05-11T20:40:15.098Z,3.85
2019-05-11T20:42:43.567Z,3.55
2019-05-11T20:45:12.378Z,3.60
2019-05-11T20:47:40.983Z,3.58
2019-05-11T20:50:09.567Z,3.30
2019-05-11T20:52:39.246Z,3.37
2019-05-11T20:55:08.917Z,3.25
2019-05-11T20:57:39.287Z,3.85
2019-05-11T21:00:09.487Z,3.92
2019-05-11T21:02:38.324Z,3.83
2019-05-11T21:05:09.050Z,3.83
2019-05-11T21:07:38.795Z,3.35
2019-05-11T21:10:09.433Z,3.37
2019-05-11T21:12:38.938Z,3.50
2019-05-11T21:15:09.401Z,3.35
2019-05-11T21:17:38.092Z,3.98
2019-05-11T21:20:09.807Z,3.08
2019-05-11T21:22:40.580Z,3.30
2019-05-11T21:25:09.648Z,3.55
2019-05-11T21:27:38.519Z,3.62
2019-05-11T21:30:10.797Z,3.83
2019-05-11T21:32:40.818Z,3.83
2019-05-11T21:35:10.325Z,3.77
2019-05-11T21:37:39.233Z,3.65
2019-05-11T21:40:09.149Z,3.40
2019-05-11T21:42:39.128Z,3.70
2019-05-11T21:45:09.929Z,3.47
2019-05-11T21:47:39.465Z,3.92
2019-05-11T21:50:09.488Z,4.30
2019-05-11T21:52:38.785Z,3.92
2019-05-11T21:55:09.389Z,3.62
2019-05-11T21:57:38.249Z,3.90
2019-05-11T22:00:09.702Z,3.90
2019-05-11T22:02:38.787Z,4.20
2019-05-11T22:05:08.688Z,3.92
2019-05-11T22:07:38.843Z,3.75
2019-05-11T22:10:09.045Z,4.20
2019-05-11T22:12:38.690Z,4.10
2019-05-11T22:15:09.380Z,3.72
2019-05-11T22:17:39.284Z,4.33
2019-05-11T22:20:09.130Z,4.17
2019-05-11T22:22:38.958Z,4.25
2019-05-11T22:25:09.147Z,4.35
2019-05-11T22:27:38.915Z,4.58
2019-05-11T22:30:08.981Z,4.08
2019-05-11T22:32:38.622Z,4.20
2019-05-11T22:35:08.140Z,3.98
2019-05-11T22:37:38.683Z,4.00
2019-05-11T22:40:08.459Z,4.10
2019-05-11T22:42:37.136Z,4.53
2019-05-11T22:45:08.554Z,3.95
2019-05-11T22:47:39.277Z,4.10
2019-05-11T22:50:08.572Z,4.05
2019-05-11T22:52:39.805Z,4.28
2019-05-11T22:55:11.118Z,3.92
2019-05-11T22:57:38.347Z,4.03
2019-05-11T23:00:09.144Z,4.10
2019-05-11T23:02:38.283Z,4.05
2019-05-11T23:05:08.480Z,4.30
2019-05-11T23:07:41.193Z,3.87
2019-05-11T23:10:09.347Z,4.10
2019-05-11T23:12:38.467Z,4.03
2019-05-11T23:15:09.951Z,4.03
2019-05-11T23:17:38.719Z,4.58
2019-05-11T23:20:08.486Z,4.30
2019-05-11T23:22:51.223Z,4.22
2019-05-11T23:25:08.932Z,3.92
2019-05-11T23:27:39.353Z,4.22
2019-05-11T23:30:08.842Z,4.00
2019-05-11T23:32:37.723Z,4.08
2019-05-11T23:35:08.395Z,4.47
2019-05-11T23:37:38.613Z,4.58
2019-05-11T23:40:10.567Z,4.53
2019-05-11T23:42:39.012Z,4.67
2019-05-11T23:45:08.514Z,4.37
2019-05-11T23:47:39.347Z,5.05
2019-05-11T23:50:08.553Z,4.75
2019-05-11T23:52:38.047Z,4.78
2019-05-11T23:55:08.552Z,4.35
2019-05-11T23:57:37.861Z,4.30
